sensor_id;sensor_type;location;lat;lon;timestamp;pressure;altitude;pressure_sealevel;temperature;humidity
54546;BME280;40444;45.184;9.850;2023-11-21T00:56:24;100318.28;;;11.34;100.00
54546;BME280;40444;45.184;9.850;2023-11-21T00:58:54;100314.34;;;11.29;100.00
54546;BME280;40444;45.184;9.850;2023-11-21T01:01:22;100313.66;;;11.27;100.00
54546;BME280;40444;45.184;9.850;2023-11-21T01:03:51;100313.66;;;11.27;100.00
54546;BME280;40444;45.184;9.850;2023-11-21T01:06:20;100317.47;;;11.24;100.00
54546;BME280;40444;45.184;9.850;2023-11-21T01:08:48;100316.63;;;11.24;100.00
54546;BME280;40444;45.184;9.850;2023-11-21T01:11:16;100321.44;;;11.30;100.00
54546;BME280;40444;45.184;9.850;2023-11-21T01:13:45;100321.56;;;11.28;100.00
54546;BME280;40444;45.184;9.850;2023-11-21T01:16:13;100323.56;;;11.26;100.00
54546;BME280;40444;45.184;9.850;2023-11-21T01:18:42;100327.06;;;11.27;100.00
54546;BME280;40444;45.184;9.850;2023-11-21T01:21:10;100332.16;;;11.30;100.00
54546;BME280;40444;45.184;9.850;2023-11-21T01:23:38;100329.16;;;11.33;100.00
54546;BME280;40444;45.184;9.850;2023-11-21T01:26:07;100318.88;;;11.28;100.00
54546;BME280;40444;45.184;9.850;2023-11-21T01:28:37;100317.88;;;11.29;100.00
54546;BME280;40444;45.184;9.850;2023-11-21T01:31:06;100315.50;;;11.26;100.00
54546;BME280;40444;45.184;9.850;2023-11-21T01:33:35;100311.19;;;11.43;100.00
54546;BME280;40444;45.184;9.850;2023-11-21T01:36:04;100305.13;;;11.41;100.00
54546;BME280;40444;45.184;9.850;2023-11-21T01:38:33;100304.94;;;11.43;100.00
54546;BME280;40444;45.184;9.850;2023-11-21T01:41:02;100301.97;;;11.46;100.00
54546;BME280;40444;45.184;9.850;2023-11-21T01:43:31;100304.38;;;11.49;100.00
54546;BME280;40444;45.184;9.850;2023-11-21T01:46:00;100306.22;;;11.48;100.00
54546;BME280;40444;45.184;9.850;2023-11-21T01:48:28;100299.09;;;11.57;100.00
54546;BME280;40444;45.184;9.850;2023-11-21T01:50:58;100297.09;;;11.59;100.00
54546;BME280;40444;45.184;9.850;2023-11-21T01:53:27;100303.19;;;11.61;100.00
54546;BME280;40444;45.184;9.850;2023-11-21T01:55:56;100303.00;;;11.62;100.00
54546;BME280;40444;45.184;9.850;2023-11-21T01:58:26;100307.84;;;11.59;100.00
54546;BME280;40444;45.184;9.850;2023-11-21T02:00:54;100310.13;;;11.54;100.00
54546;BME280;40444;45.184;9.850;2023-11-21T02:03:23;100298.94;;;11.58;100.00
54546;BME280;40444;45.184;9.850;2023-11-21T02:05:53;100293.88;;;11.55;100.00
54546;BME280;40444;45.184;9.850;2023-11-21T02:08:22;100286.38;;;11.59;100.00
54546;BME280;40444;45.184;9.850;2023-11-21T02:10:50;100281.84;;;11.59;100.00
54546;BME280;40444;45.184;9.850;2023-11-21T02:13:19;100280.00;;;11.60;100.00
54546;BME280;40444;45.184;9.850;2023-11-21T02:15:47;100277.03;;;11.63;100.00
54546;BME280;40444;45.184;9.850;2023-11-21T02:18:19;100279.69;;;11.63;100.00
54546;BME280;40444;45.184;9.850;2023-11-21T02:20:48;100273.41;;;11.54;100.00
54546;BME280;40444;45.184;9.850;2023-11-21T02:23:16;100271.84;;;11.52;100.00
54546;BME280;40444;45.184;9.850;2023-11-21T02:25:47;100264.50;;;11.36;100.00
54546;BME280;40444;45.184;9.850;2023-11-21T02:28:16;100263.25;;;11.30;100.00
54546;BME280;40444;45.184;9.850;2023-11-21T02:30:54;100260.13;;;11.35;100.00
54546;BME280;40444;45.184;9.850;2023-11-21T02:33:27;100260.72;;;11.29;100.00
54546;BME280;40444;45.184;9.850;2023-11-21T02:35:55;100251.38;;;11.33;100.00
54546;BME280;40444;45.184;9.850;2023-11-21T02:38:24;100247.66;;;11.44;100.00
54546;BME280;40444;45.184;9.850;2023-11-21T02:40:52;100252.63;;;11.38;100.00
54546;BME280;40444;45.184;9.850;2023-11-21T02:43:21;100252.81;;;11.27;100.00
54546;BME280;40444;45.184;9.850;2023-11-21T02:45:49;100242.56;;;11.41;100.00
54546;BME280;40444;45.184;9.850;2023-11-21T02:48:18;100251.47;;;11.41;100.00
54546;BME280;40444;45.184;9.850;2023-11-21T02:50:46;100253.84;;;11.44;100.00
54546;BME280;40444;45.184;9.850;2023-11-21T02:53:15;100253.97;;;11.43;100.00
54546;BME280;40444;45.184;9.850;2023-11-21T02:55:43;100255.25;;;11.48;100.00
54546;BME280;40444;45.184;9.850;2023-11-21T02:58:11;100249.88;;;11.48;100.00
54546;BME280;40444;45.184;9.850;2023-11-21T03:00:40;100251.72;;;11.48;100.00
54546;BME280;40444;45.184;9.850;2023-11-21T03:03:09;100245.47;;;11.47;100.00
54546;BME280;40444;45.184;9.850;2023-11-21T03:05:38;100237.59;;;11.46;100.00
54546;BME280;40444;45.184;9.850;2023-11-21T03:08:07;100234.38;;;11.42;100.00
54546;BME280;40444;45.184;9.850;2023-11-21T03:10:35;100235.06;;;11.44;100.00
54546;BME280;40444;45.184;9.850;2023-11-21T03:13:03;100238.44;;;11.46;100.00
54546;BME280;40444;45.184;9.850;2023-11-21T03:15:32;100239.72;;;11.42;100.00
54546;BME280;40444;45.184;9.850;2023-11-21T03:18:01;100230.38;;;11.46;100.00
54546;BME280;40444;45.184;9.850;2023-11-21T03:20:29;100235.28;;;11.51;100.00
54546;BME280;40444;45.184;9.850;2023-11-21T03:22:57;100234.44;;;11.50;100.00
54546;BME280;40444;45.184;9.850;2023-11-21T03:25:27;100224.47;;;11.60;100.00
54546;BME280;40444;45.184;9.850;2023-11-21T03:27:56;100231.41;;;11.63;100.00
54546;BME280;40444;45.184;9.850;2023-11-21T03:30:25;100220.59;;;11.55;100.00
54546;BME280;40444;45.184;9.850;2023-11-21T03:32:53;100230.31;;;11.56;100.00
54546;BME280;40444;45.184;9.850;2023-11-21T03:35:22;100221.28;;;11.57;100.00
54546;BME280;40444;45.184;9.850;2023-11-21T03:37:51;100222.97;;;11.58;100.00
54546;BME280;40444;45.184;9.850;2023-11-21T03:40:20;100225.50;;;11.59;100.00
54546;BME280;40444;45.184;9.850;2023-11-21T03:42:50;100213.25;;;11.57;100.00
54546;BME280;40444;45.184;9.850;2023-11-21T03:45:20;100219.75;;;11.54;100.00
54546;BME280;40444;45.184;9.850;2023-11-21T03:47:49;100225.72;;;11.48;100.00
54546;BME280;40444;45.184;9.850;2023-11-21T03:50:17;100225.28;;;11.53;100.00
54546;BME280;40444;45.184;9.850;2023-11-21T03:52:46;100220.28;;;11.58;100.00
54546;BME280;40444;45.184;9.850;2023-11-21T03:55:14;100228.34;;;11.58;100.00
54546;BME280;40444;45.184;9.850;2023-11-21T03:57:43;100239.06;;;11.58;100.00
54546;BME280;40444;45.184;9.850;2023-11-21T04:00:12;100238.44;;;11.64;100.00
54546;BME280;40444;45.184;9.850;2023-11-21T04:02:40;100239.44;;;11.63;100.00
54546;BME280;40444;45.184;9.850;2023-11-21T04:05:09;100238.59;;;11.62;100.00
54546;BME280;40444;45.184;9.850;2023-11-21T04:07:37;100238.78;;;11.61;100.00
54546;BME280;40444;45.184;9.850;2023-11-21T04:10:07;100244.66;;;11.64;100.00
54546;BME280;40444;45.184;9.850;2023-11-21T04:12:41;100244.81;;;11.63;100.00
54546;BME280;40444;45.184;9.850;2023-11-21T04:15:10;100243.97;;;11.62;100.00
54546;BME280;40444;45.184;9.850;2023-11-21T04:17:39;100245.19;;;11.68;100.00
54546;BME280;40444;45.184;9.850;2023-11-21T04:20:08;100248.59;;;11.70;100.00
54546;BME280;40444;45.184;9.850;2023-11-21T04:22:41;100243.06;;;11.72;100.00
54546;BME280;40444;45.184;9.850;2023-11-21T04:25:14;100247.88;;;11.68;100.00
54546;BME280;40444;45.184;9.850;2023-11-21T04:27:44;100241.97;;;11.64;100.00
54546;BME280;40444;45.184;9.850;2023-11-21T04:30:13;100239.00;;;11.68;100.00
54546;BME280;40444;45.184;9.850;2023-11-21T04:32:42;100234.63;;;11.67;100.00
54546;BME280;40444;45.184;9.850;2023-11-21T04:35:11;100239.00;;;11.68;100.00
54546;BME280;40444;45.184;9.850;2023-11-21T04:37:39;100229.81;;;11.70;100.00
54546;BME280;40444;45.184;9.850;2023-11-21T04:40:08;100225.28;;;11.71;100.00
54546;BME280;40444;45.184;9.850;2023-11-21T04:42:37;100234.84;;;11.73;100.00
54546;BME280;40444;45.184;9.850;2023-11-21T04:45:06;100230.38;;;11.82;100.00
54546;BME280;40444;45.184;9.850;2023-11-21T04:47:40;100227.03;;;11.80;100.00
54546;BME280;40444;45.184;9.850;2023-11-21T04:50:09;100235.38;;;11.77;100.00
54546;BME280;40444;45.184;9.850;2023-11-21T04:52:38;100233.00;;;11.74;100.00
54546;BME280;40444;45.184;9.850;2023-11-21T04:55:07;100233.69;;;11.76;100.00
54546;BME280;40444;45.184;9.850;2023-11-21T04:57:39;100238.31;;;11.66;100.00
54546;BME280;40444;45.184;9.850;2023-11-21T05:00:10;100230.25;;;11.66;100.00
54546;BME280;40444;45.184;9.850;2023-11-21T05:02:40;100233.06;;;11.64;100.00
54546;BME280;40444;45.184;9.850;2023-11-21T05:05:10;100224.19;;;11.63;100.00
54546;BME280;40444;45.184;9.850;2023-11-21T05:07:39;100218.28;;;11.60;100.00
54546;BME280;40444;45.184;9.850;2023-11-21T05:10:09;100223.25;;;11.55;100.00
54546;BME280;40444;45.184;9.850;2023-11-21T05:12:42;100228.50;;;11.56;100.00
54546;BME280;40444;45.184;9.850;2023-11-21T05:15:14;100222.97;;;11.58;100.00
54546;BME280;40444;45.184;9.850;2023-11-21T05:17:43;100224.56;;;11.51;100.00
54546;BME280;40444;45.184;9.850;2023-11-21T05:20:18;100231.09;;;11.48;100.00
54546;BME280;40444;45.184;9.850;2023-11-21T05:22:49;100223.56;;;11.52;100.00
54546;BME280;40444;45.184;9.850;2023-11-21T05:25:18;100216.22;;;11.54;100.00
54546;BME280;40444;45.184;9.850;2023-11-21T05:27:47;100204.94;;;11.50;100.00
54546;BME280;40444;45.184;9.850;2023-11-21T05:49:36;100215.38;;;11.35;100.00
54546;BME280;40444;45.184;9.850;2023-11-21T16:38:50;100206.81;;;8.84;100.00
54546;BME280;40444;45.184;9.850;2023-11-21T16:41:19;100212.59;;;8.99;100.00
54546;BME280;40444;45.184;9.850;2023-11-21T16:43:48;100213.47;;;9.19;100.00
54546;BME280;40444;45.184;9.850;2023-11-21T16:46:17;100214.94;;;9.43;100.00
54546;BME280;40444;45.184;9.850;2023-11-21T16:48:45;100219.28;;;9.53;100.00
54546;BME280;40444;45.184;9.850;2023-11-21T16:51:20;100229.88;;;9.74;100.00
54546;BME280;40444;45.184;9.850;2023-11-21T16:53:48;100236.03;;;9.94;100.00
54546;BME280;40444;45.184;9.850;2023-11-21T16:56:16;100228.72;;;10.06;100.00
54546;BME280;40444;45.184;9.850;2023-11-21T16:58:45;100238.13;;;10.20;100.00
54546;BME280;40444;45.184;9.850;2023-11-21T17:01:13;100244.63;;;10.27;100.00
54546;BME280;40444;45.184;9.850;2023-11-21T17:03:42;100249.94;;;10.17;100.00
54546;BME280;40444;45.184;9.850;2023-11-21T17:06:10;100256.59;;;10.23;100.00
54546;BME280;40444;45.184;9.850;2023-11-21T17:08:39;100249.94;;;10.17;100.00
54546;BME280;40444;45.184;9.850;2023-11-21T17:11:08;100248.00;;;10.19;100.00
54546;BME280;40444;45.184;9.850;2023-11-21T17:13:42;100261.66;;;10.16;100.00
54546;BME280;40444;45.184;9.850;2023-11-21T17:16:10;100258.81;;;10.18;100.00
54546;BME280;40444;45.184;9.850;2023-11-21T17:18:38;100254.75;;;10.23;100.00
54546;BME280;40444;45.184;9.850;2023-11-21T17:21:06;100252.34;;;10.20;100.00
54546;BME280;40444;45.184;9.850;2023-11-21T17:23:43;100259.28;;;10.23;100.00
54546;BME280;40444;45.184;9.850;2023-11-21T17:26:11;100266.03;;;10.07;100.00
54546;BME280;40444;45.184;9.850;2023-11-21T17:28:43;100266.88;;;10.08;100.00
54546;BME280;40444;45.184;9.850;2023-11-21T17:31:12;100272.94;;;10.10;100.00
54546;BME280;40444;45.184;9.850;2023-11-21T17:33:40;100281.81;;;10.10;100.00
54546;BME280;40444;45.184;9.850;2023-11-21T17:36:10;100278.56;;;10.07;100.00
54546;BME280;40444;45.184;9.850;2023-11-21T17:38:42;100271.97;;;10.11;100.00
54546;BME280;40444;45.184;9.850;2023-11-21T17:41:11;100272.38;;;10.16;100.00
54546;BME280;40444;45.184;9.850;2023-11-21T17:43:40;100275.34;;;10.23;100.00
54546;BME280;40444;45.184;9.850;2023-11-21T17:46:09;100275.75;;;10.08;100.00
54546;BME280;40444;45.184;9.850;2023-11-21T17:48:39;100276.91;;;10.06;100.00
54546;BME280;40444;45.184;9.850;2023-11-21T17:51:10;100291.28;;;10.05;100.00
54546;BME280;40444;45.184;9.850;2023-11-21T17:53:39;100291.38;;;10.13;100.00
54546;BME280;40444;45.184;9.850;2023-11-21T17:56:14;100290.00;;;10.28;100.00
54546;BME280;40444;45.184;9.850;2023-11-21T17:58:47;100300.13;;;10.34;100.00
54546;BME280;40444;45.184;9.850;2023-11-21T18:01:23;100297.03;;;10.29;100.00
54546;BME280;40444;45.184;9.850;2023-11-21T18:03:51;100295.75;;;10.24;100.00
54546;BME280;40444;45.184;9.850;2023-11-21T18:06:20;100291.53;;;10.21;100.00
54546;BME280;40444;45.184;9.850;2023-11-21T18:08:48;100299.31;;;10.24;100.00
54546;BME280;40444;45.184;9.850;2023-11-21T18:11:17;100303.50;;;10.17;100.00
54546;BME280;40444;45.184;9.850;2023-11-21T18:13:46;100304.22;;;10.00;100.00
54546;BME280;40444;45.184;9.850;2023-11-21T18:16:16;100303.78;;;9.95;100.00
54546;BME280;40444;45.184;9.850;2023-11-21T18:18:44;100292.81;;;9.78;100.00
54546;BME280;40444;45.184;9.850;2023-11-21T18:21:13;100304.47;;;9.77;100.00
54546;BME280;40444;45.184;9.850;2023-11-21T18:23:42;100306.56;;;9.64;100.00
54546;BME280;40444;45.184;9.850;2023-11-21T18:26:16;100301.94;;;9.56;100.00
54546;BME280;40444;45.184;9.850;2023-11-21T18:28:44;100307.69;;;9.52;100.00
54546;BME280;40444;45.184;9.850;2023-11-21T18:31:14;100311.22;;;9.52;100.00
54546;BME280;40444;45.184;9.850;2023-11-21T18:33:44;100308.97;;;9.48;100.00
54546;BME280;40444;45.184;9.850;2023-11-21T18:36:12;100308.78;;;9.40;100.00
54546;BME280;40444;45.184;9.850;2023-11-21T18:38:41;100314.31;;;9.48;100.00
54546;BME280;40444;45.184;9.850;2023-11-21T18:41:09;100306.56;;;9.45;100.00
54546;BME280;40444;45.184;9.850;2023-11-21T18:43:41;100306.56;;;9.45;100.00
54546;BME280;40444;45.184;9.850;2023-11-21T18:46:10;100316.50;;;9.33;100.00
54546;BME280;40444;45.184;9.850;2023-11-21T18:48:40;100310.88;;;9.26;100.00
54546;BME280;40444;45.184;9.850;2023-11-21T18:51:09;100308.59;;;9.22;100.00
54546;BME280;40444;45.184;9.850;2023-11-21T18:53:38;100309.88;;;9.27;100.00
54546;BME280;40444;45.184;9.850;2023-11-21T18:56:08;100314.28;;;9.38;100.00
54546;BME280;40444;45.184;9.850;2023-11-21T18:58:36;100315.81;;;9.41;100.00
54546;BME280;40444;45.184;9.850;2023-11-21T19:01:05;100312.31;;;9.40;100.00
54546;BME280;40444;45.184;9.850;2023-11-21T19:03:34;100316.22;;;9.26;100.00
54546;BME280;40444;45.184;9.850;2023-11-21T19:06:02;100321.72;;;9.25;100.00
54546;BME280;40444;45.184;9.850;2023-11-21T19:08:36;100322.41;;;9.27;100.00
54546;BME280;40444;45.184;9.850;2023-11-21T19:11:04;100322.56;;;9.35;100.00
54546;BME280;40444;45.184;9.850;2023-11-21T19:13:33;100323.00;;;9.40;100.00
54546;BME280;40444;45.184;9.850;2023-11-21T19:16:01;100326.94;;;9.46;100.00
54546;BME280;40444;45.184;9.850;2023-11-21T19:18:29;100323.28;;;9.37;100.00
54546;BME280;40444;45.184;9.850;2023-11-21T19:20:59;100336.22;;;9.42;100.00
54546;BME280;40444;45.184;9.850;2023-11-21T19:23:28;100345.53;;;9.38;100.00
54546;BME280;40444;45.184;9.850;2023-11-21T19:25:56;100346.91;;;9.32;100.00
54546;BME280;40444;45.184;9.850;2023-11-21T19:28:25;100345.53;;;9.38;100.00
54546;BME280;40444;45.184;9.850;2023-11-21T19:30:54;100343.97;;;9.35;100.00
54546;BME280;40444;45.184;9.850;2023-11-21T19:33:24;100348.66;;;9.43;100.00
54546;BME280;40444;45.184;9.850;2023-11-21T19:35:54;100354.13;;;9.51;100.00
54546;BME280;40444;45.184;9.850;2023-11-21T19:38:24;100356.94;;;9.49;100.00
54546;BME280;40444;45.184;9.850;2023-11-21T19:40:52;100351.59;;;9.49;100.00
54546;BME280;40444;45.184;9.850;2023-11-21T19:43:21;100354.59;;;9.56;100.00
54546;BME280;40444;45.184;9.850;2023-11-21T19:45:50;100355.13;;;9.59;100.00
54546;BME280;40444;45.184;9.850;2023-11-21T19:48:18;100355.88;;;9.61;100.00
54546;BME280;40444;45.184;9.850;2023-11-21T19:50:52;100362.63;;;9.56;100.00
54546;BME280;40444;45.184;9.850;2023-11-21T19:53:21;100369.63;;;9.47;100.00
54546;BME280;40444;45.184;9.850;2023-11-21T19:55:49;100367.47;;;9.41;100.00
54546;BME280;40444;45.184;9.850;2023-11-21T19:58:18;100372.13;;;9.39;100.00
54546;BME280;40444;45.184;9.850;2023-11-21T20:00:47;100371.91;;;9.52;100.00
54546;BME280;40444;45.184;9.850;2023-11-21T20:03:16;100387.22;;;9.50;100.00
54546;BME280;40444;45.184;9.850;2023-11-21T20:05:50;100383.13;;;9.46;100.00
54546;BME280;40444;45.184;9.850;2023-11-21T20:08:18;100383.09;;;9.36;100.00
54546;BME280;40444;45.184;9.850;2023-11-21T20:10:47;100387.16;;;9.30;100.00
54546;BME280;40444;45.184;9.850;2023-11-21T20:13:15;100391.25;;;9.34;100.00
54546;BME280;40444;45.184;9.850;2023-11-21T20:15:44;100393.50;;;9.29;100.00
54546;BME280;40444;45.184;9.850;2023-11-21T20:18:13;100399.13;;;9.36;100.00
54546;BME280;40444;45.184;9.850;2023-11-21T20:20:43;100405.06;;;9.40;100.00
54546;BME280;40444;45.184;9.850;2023-11-21T20:23:11;100404.72;;;9.33;100.00
54546;BME280;40444;45.184;9.850;2023-11-21T20:25:40;100411.88;;;9.23;100.00
54546;BME280;40444;45.184;9.850;2023-11-21T20:28:09;100409.50;;;9.20;100.00
54546;BME280;40444;45.184;9.850;2023-11-21T20:30:38;100418.22;;;9.22;100.00
54546;BME280;40444;45.184;9.850;2023-11-21T20:33:07;100416.53;;;9.21;100.00
54546;BME280;40444;45.184;9.850;2023-11-21T20:35:35;100408.31;;;9.13;100.00
54546;BME280;40444;45.184;9.850;2023-11-21T20:38:08;100413.66;;;9.13;100.00
54546;BME280;40444;45.184;9.850;2023-11-21T20:40:39;100418.16;;;9.12;100.00
54546;BME280;40444;45.184;9.850;2023-11-21T20:43:08;100410.41;;;9.09;100.00
54546;BME280;40444;45.184;9.850;2023-11-21T20:45:37;100414.66;;;9.11;100.00
54546;BME280;40444;45.184;9.850;2023-11-21T20:48:07;100420.84;;;9.12;100.00
54546;BME280;40444;45.184;9.850;2023-11-21T20:50:36;100410.16;;;9.12;100.00
54546;BME280;40444;45.184;9.850;2023-11-21T20:53:04;100415.09;;;9.17;100.00
54546;BME280;40444;45.184;9.850;2023-11-21T20:55:39;100424.22;;;9.14;100.00
54546;BME280;40444;45.184;9.850;2023-11-21T20:58:08;100428.19;;;9.20;100.00
54546;BME280;40444;45.184;9.850;2023-11-21T21:00:37;100427.47;;;9.18;100.00
54546;BME280;40444;45.184;9.850;2023-11-21T21:03:05;100430.88;;;9.20;100.00
54546;BME280;40444;45.184;9.850;2023-11-21T21:05:35;100425.91;;;9.15;100.00
54546;BME280;40444;45.184;9.850;2023-11-21T21:08:03;100435.38;;;8.98;100.00
54546;BME280;40444;45.184;9.850;2023-11-21T21:10:33;100430.44;;;8.94;100.00
54546;BME280;40444;45.184;9.850;2023-11-21T21:13:03;100432.81;;;8.97;100.00
54546;BME280;40444;45.184;9.850;2023-11-21T21:15:32;100437.72;;;8.92;100.00
54546;BME280;40444;45.184;9.850;2023-11-21T21:18:01;100433.91;;;8.84;100.00
54546;BME280;40444;45.184;9.850;2023-11-21T21:20:34;100430.00;;;8.89;100.00
54546;BME280;40444;45.184;9.850;2023-11-21T21:23:04;100437.88;;;8.90;100.00
54546;BME280;40444;45.184;9.850;2023-11-21T21:25:33;100444.84;;;8.81;100.00
54546;BME280;40444;45.184;9.850;2023-11-21T21:28:02;100443.66;;;8.74;100.00
54546;BME280;40444;45.184;9.850;2023-11-21T21:30:30;100443.09;;;8.71;100.00
54546;BME280;40444;45.184;9.850;2023-11-21T21:32:59;100448.53;;;8.69;100.00
54546;BME280;40444;45.184;9.850;2023-11-21T21:35:28;100449.25;;;8.71;100.00
54546;BME280;40444;45.184;9.850;2023-11-21T21:37:57;100455.53;;;8.81;100.00
54546;BME280;40444;45.184;9.850;2023-11-21T21:40:25;100463.47;;;8.72;100.00
54546;BME280;40444;45.184;9.850;2023-11-21T21:42:56;100469.00;;;8.80;100.00
54546;BME280;40444;45.184;9.850;2023-11-21T21:45:26;100462.56;;;8.82;100.00
54546;BME280;40444;45.184;9.850;2023-11-21T21:47:55;100467.97;;;8.71;100.00
54546;BME280;40444;45.184;9.850;2023-11-21T21:50:23;100467.75;;;8.63;100.00
54546;BME280;40444;45.184;9.850;2023-11-21T21:52:53;100469.91;;;8.69;100.00
54546;BME280;40444;45.184;9.850;2023-11-21T21:55:27;100469.50;;;8.53;100.00
54546;BME280;40444;45.184;9.850;2023-11-21T21:57:58;100472.03;;;8.54;100.00
54546;BME280;40444;45.184;9.850;2023-11-21T22:00:26;100474.06;;;8.62;100.00
54546;BME280;40444;45.184;9.850;2023-11-21T22:02:55;100471.19;;;8.54;100.00
54546;BME280;40444;45.184;9.850;2023-11-21T22:05:25;100480.25;;;8.63;100.00
54546;BME280;40444;45.184;9.850;2023-11-21T22:07:53;100476.53;;;8.54;100.00
54546;BME280;40444;45.184;9.850;2023-11-21T22:10:22;100478.75;;;8.49;100.00
54546;BME280;40444;45.184;9.850;2023-11-21T22:12:50;100481.34;;;8.60;100.00
54546;BME280;40444;45.184;9.850;2023-11-21T22:15:20;100471.91;;;8.56;100.00
54546;BME280;40444;45.184;9.850;2023-11-21T22:17:48;100475.34;;;8.47;100.00
54546;BME280;40444;45.184;9.850;2023-11-21T22:20:19;100482.88;;;8.42;100.00
54546;BME280;40444;45.184;9.850;2023-11-21T22:22:50;100476.78;;;8.51;100.00
54546;BME280;40444;45.184;9.850;2023-11-21T22:25:18;100476.78;;;8.51;100.00
54546;BME280;40444;45.184;9.850;2023-11-21T22:27:46;100478.75;;;8.49;100.00
54546;BME280;40444;45.184;9.850;2023-11-21T22:30:15;100486.69;;;8.60;100.00
54546;BME280;40444;45.184;9.850;2023-11-21T22:32:44;100489.81;;;8.65;100.00
54546;BME280;40444;45.184;9.850;2023-11-21T22:35:13;100490.47;;;8.57;100.00
54546;BME280;40444;45.184;9.850;2023-11-21T22:37:41;100492.66;;;8.52;100.00
54546;BME280;40444;45.184;9.850;2023-11-21T22:40:10;100490.13;;;8.51;100.00
54546;BME280;40444;45.184;9.850;2023-11-21T22:42:38;100486.63;;;8.50;100.00
54546;BME280;40444;45.184;9.850;2023-11-21T22:45:07;100482.63;;;8.45;100.00
54546;BME280;40444;45.184;9.850;2023-11-21T22:47:36;100486.25;;;8.44;100.00
54546;BME280;40444;45.184;9.850;2023-11-21T22:50:04;100490.66;;;8.45;100.00
54546;BME280;40444;45.184;9.850;2023-11-21T22:52:33;100488.31;;;8.51;100.00
54546;BME280;40444;45.184;9.850;2023-11-21T22:55:02;100495.47;;;8.51;100.00
54546;BME280;40444;45.184;9.850;2023-11-21T22:57:33;100495.00;;;8.46;100.00
54546;BME280;40444;45.184;9.850;2023-11-21T23:00:03;100495.63;;;8.38;100.00
54546;BME280;40444;45.184;9.850;2023-11-21T23:02:57;100486.00;;;8.47;100.00
54546;BME280;40444;45.184;9.850;2023-11-21T23:05:28;100487.84;;;8.46;100.00
54546;BME280;40444;45.184;9.850;2023-11-21T23:07:57;100490.88;;;8.42;100.00
54546;BME280;40444;45.184;9.850;2023-11-21T23:10:25;100491.28;;;8.37;100.00
54546;BME280;40444;45.184;9.850;2023-11-21T23:12:55;100484.09;;;8.38;100.00
54546;BME280;40444;45.184;9.850;2023-11-21T23:15:24;100493.09;;;8.37;100.00
54546;BME280;40444;45.184;9.850;2023-11-21T23:17:54;100488.34;;;8.40;100.00
54546;BME280;40444;45.184;9.850;2023-11-21T23:20:22;100481.78;;;8.44;100.00
54546;BME280;40444;45.184;9.850;2023-11-21T23:22:51;100485.63;;;8.51;100.00
54546;BME280;40444;45.184;9.850;2023-11-21T23:25:19;100477.75;;;8.50;100.00
54546;BME280;40444;45.184;9.850;2023-11-21T23:27:49;100476.06;;;8.49;100.00
54546;BME280;40444;45.184;9.850;2023-11-21T23:30:18;100477.53;;;8.42;100.00
54546;BME280;40444;45.184;9.850;2023-11-21T23:32:47;100472.78;;;8.34;100.00
54546;BME280;40444;45.184;9.850;2023-11-21T23:35:16;100473.44;;;8.38;100.00
54546;BME280;40444;45.184;9.850;2023-11-21T23:37:44;100477.69;;;8.40;100.00
54546;BME280;40444;45.184;9.850;2023-11-21T23:40:12;100462.38;;;8.42;100.00
54546;BME280;40444;45.184;9.850;2023-11-21T23:42:41;100459.31;;;8.47;100.00
54546;BME280;40444;45.184;9.850;2023-11-21T23:45:10;100456.19;;;8.42;100.00
54546;BME280;40444;45.184;9.850;2023-11-21T23:47:39;100459.22;;;8.37;100.00
54546;BME280;40444;45.184;9.850;2023-11-21T23:50:08;100457.50;;;8.36;100.00
54546;BME280;40444;45.184;9.850;2023-11-21T23:52:37;100453.25;;;8.33;100.00
54546;BME280;40444;45.184;9.850;2023-11-21T23:55:05;100449.03;;;8.31;100.00
54546;BME280;40444;45.184;9.850;2023-11-21T23:57:34;100441.91;;;8.20;100.00
